createdAt,value
2022-08-19T00:01:40.897Z,24.17
2022-08-19T00:04:10.839Z,24.11
2022-08-19T00:06:38.700Z,24.08
2022-08-19T00:09:07.369Z,24.06
2022-08-19T00:11:35.471Z,24.04
2022-08-19T00:14:02.005Z,24.02
2022-08-19T00:16:28.426Z,24.05
2022-08-19T00:18:56.365Z,24.06
2022-08-19T00:21:25.614Z,24.07
2022-08-19T00:23:52.470Z,24.06
2022-08-19T00:26:19.323Z,24.05
2022-08-19T00:28:45.812Z,24.06
2022-08-19T00:31:12.341Z,24.06
2022-08-19T00:33:38.950Z,24.08
2022-08-19T00:36:08.022Z,24.10
2022-08-19T00:38:37.575Z,24.08
2022-08-19T00:41:06.379Z,24.06
2022-08-19T00:43:33.045Z,24.08
2022-08-19T00:46:00.301Z,24.07
2022-08-19T00:48:27.389Z,24.07
2022-08-19T00:50:55.176Z,24.10
2022-08-19T00:53:25.101Z,24.10
2022-08-19T00:55:55.148Z,24.09
2022-08-19T00:58:25.535Z,24.04
2022-08-19T01:00:52.176Z,24.02
2022-08-19T01:03:21.294Z,23.98
2022-08-19T01:05:49.765Z,24.01
2022-08-19T01:08:18.249Z,24.00
2022-08-19T01:10:49.247Z,23.96
2022-08-19T01:13:17.004Z,23.99
2022-08-19T01:15:49.936Z,23.97
2022-08-19T01:18:18.171Z,23.93
2022-08-19T01:20:45.468Z,23.92
2022-08-19T01:23:13.060Z,23.92
2022-08-19T01:25:45.041Z,23.90
2022-08-19T01:28:33.874Z,23.89
2022-08-19T01:31:01.068Z,23.92
2022-08-19T01:33:35.294Z,23.93
2022-08-19T01:36:23.301Z,23.93
2022-08-19T01:38:50.392Z,23.97
2022-08-19T01:41:18.473Z,23.98
2022-08-19T01:44:10.291Z,23.98
2022-08-19T01:46:33.060Z,24.01
2022-08-19T01:48:59.732Z,24.00
2022-08-19T01:51:27.157Z,23.99
2022-08-19T01:53:55.642Z,23.98
2022-08-19T01:56:22.088Z,23.96
2022-08-19T01:58:58.488Z,23.95
2022-08-19T02:01:25.302Z,23.95
2022-08-19T02:03:57.762Z,23.93
2022-08-19T02:06:26.844Z,23.91
2022-08-19T02:08:53.638Z,23.91
2022-08-19T02:11:27.616Z,23.91
2022-08-19T02:13:55.471Z,23.89
2022-08-19T02:16:22.441Z,23.85
2022-08-19T02:18:49.569Z,23.81
2022-08-19T02:21:17.627Z,23.80
2022-08-19T02:23:44.570Z,23.79
2022-08-19T02:26:11.643Z,23.81
2022-08-19T02:28:38.341Z,23.78
2022-08-19T02:31:10.386Z,23.78
2022-08-19T02:33:37.008Z,23.77
2022-08-19T02:36:08.175Z,23.67
2022-08-19T02:38:35.567Z,23.62
2022-08-19T02:41:05.504Z,23.63
2022-08-19T02:43:37.384Z,23.65
2022-08-19T02:46:29.670Z,23.60
2022-08-19T02:48:59.300Z,23.62
2022-08-19T02:51:29.039Z,23.61
2022-08-19T02:53:56.045Z,23.62
2022-08-19T02:56:22.621Z,23.65
2022-08-19T02:58:49.358Z,23.68
2022-08-19T03:01:33.310Z,23.65
2022-08-19T03:04:01.965Z,23.67
2022-08-19T03:06:28.935Z,23.65
2022-08-19T03:08:56.289Z,23.63
2022-08-19T03:11:30.176Z,23.59
2022-08-19T03:13:56.914Z,23.59
2022-08-19T03:16:27.242Z,23.55
2022-08-19T03:18:54.897Z,23.56
2022-08-19T03:21:24.831Z,23.60
2022-08-19T03:23:54.496Z,23.57
2022-08-19T03:26:21.196Z,23.57
2022-08-19T03:28:51.129Z,23.59
2022-08-19T03:31:44.084Z,23.61
2022-08-19T03:34:18.533Z,23.62
2022-08-19T03:36:45.745Z,23.63
2022-08-19T03:39:12.259Z,23.59
2022-08-19T03:41:45.178Z,23.52
2022-08-19T03:44:23.032Z,23.51
2022-08-19T03:46:56.142Z,23.51
2022-08-19T03:49:27.222Z,23.47
2022-08-19T03:51:57.343Z,23.44
2022-08-19T03:54:26.375Z,23.44
2022-08-19T03:56:55.133Z,23.45
2022-08-19T03:59:26.798Z,23.45
2022-08-19T04:01:58.686Z,23.44
2022-08-19T04:04:29.228Z,23.44
2022-08-19T04:06:56.993Z,23.43
2022-08-19T04:09:23.385Z,23.42
2022-08-19T04:11:56.213Z,23.43
2022-08-19T04:14:26.028Z,23.44
2022-08-19T04:16:53.630Z,23.44
2022-08-19T04:19:20.823Z,23.42
2022-08-19T04:21:49.780Z,23.42
2022-08-19T04:24:16.931Z,23.41
2022-08-19T04:26:43.952Z,23.42
2022-08-19T04:29:16.647Z,23.44
2022-08-19T04:31:45.999Z,23.44
2022-08-19T04:34:16.032Z,23.44
2022-08-19T04:36:45.415Z,23.44
2022-08-19T04:39:16.888Z,23.43
2022-08-19T04:42:02.875Z,23.43
2022-08-19T04:44:35.171Z,23.41
2022-08-19T04:47:10.858Z,23.41
2022-08-19T04:49:38.376Z,23.39
2022-08-19T04:52:04.889Z,23.38
2022-08-19T04:54:38.336Z,23.34
2022-08-19T04:57:10.553Z,23.30
2022-08-19T04:59:39.350Z,23.30
2022-08-19T05:02:07.555Z,23.29
2022-08-19T05:04:34.512Z,23.33
2022-08-19T05:07:02.123Z,23.37
2022-08-19T05:09:55.430Z,23.39
2022-08-19T05:12:16.485Z,23.36
2022-08-19T05:14:42.942Z,23.31
2022-08-19T05:17:26.459Z,23.27
2022-08-19T05:20:13.385Z,23.27
2022-08-19T05:22:40.116Z,23.25
2022-08-19T05:25:13.185Z,23.23
2022-08-19T05:27:41.304Z,23.25
2022-08-19T05:30:08.451Z,23.25
2022-08-19T05:32:34.968Z,23.26
2022-08-19T05:35:01.675Z,23.27
2022-08-19T05:37:28.448Z,23.25
2022-08-19T05:39:55.957Z,23.24
2022-08-19T05:42:23.874Z,23.23
2022-08-19T05:44:51.151Z,23.22
2022-08-19T05:47:19.700Z,23.20
2022-08-19T05:49:46.578Z,23.21
2022-08-19T05:52:16.944Z,23.19
2022-08-19T05:54:51.276Z,23.14
2022-08-19T05:57:19.818Z,23.13
2022-08-19T05:59:49.445Z,23.15
2022-08-19T06:02:20.335Z,23.12
2022-08-19T06:04:46.992Z,23.11
2022-08-19T06:07:13.397Z,23.12
2022-08-19T06:09:41.072Z,23.12
2022-08-19T06:12:10.307Z,23.10
2022-08-19T06:14:40.226Z,23.15
2022-08-19T06:17:09.223Z,23.18
2022-08-19T06:19:40.810Z,23.23
2022-08-19T06:22:08.421Z,23.29
2022-08-19T06:24:36.055Z,23.30
2022-08-19T06:27:03.726Z,23.27
2022-08-19T06:29:30.997Z,23.27
2022-08-19T06:32:00.522Z,23.30
2022-08-19T06:34:29.183Z,23.37
2022-08-19T06:36:56.846Z,23.40
2022-08-19T06:39:26.415Z,23.41
2022-08-19T06:41:58.576Z,23.40
2022-08-19T06:44:35.399Z,23.41
2022-08-19T06:47:14.660Z,23.40
2022-08-19T06:49:49.579Z,23.43
2022-08-19T06:52:16.461Z,23.42
2022-08-19T06:54:56.030Z,23.45
2022-08-19T06:57:25.412Z,23.47
2022-08-19T06:59:52.391Z,23.45
2022-08-19T07:02:20.157Z,23.41
2022-08-19T07:04:46.928Z,23.42
2022-08-19T07:07:19.595Z,23.41
2022-08-19T07:09:51.816Z,23.43
2022-08-19T07:12:25.199Z,23.44
2022-08-19T07:14:53.619Z,23.45
2022-08-19T07:17:21.110Z,23.46
2022-08-19T07:19:48.560Z,23.48
2022-08-19T07:22:15.897Z,23.51
2022-08-19T07:24:51.101Z,23.52
2022-08-19T07:27:19.715Z,23.57
2022-08-19T07:29:56.085Z,23.57
2022-08-19T07:32:26.849Z,23.62
2022-08-19T07:34:53.686Z,23.61
2022-08-19T07:37:20.156Z,23.70
2022-08-19T07:39:46.710Z,23.77
2022-08-19T07:42:14.622Z,23.77
2022-08-19T07:44:42.091Z,23.76
2022-08-19T07:47:12.023Z,23.75
2022-08-19T07:49:55.454Z,23.76
2022-08-19T07:52:22.056Z,23.76
2022-08-19T07:54:48.682Z,23.73
2022-08-19T07:57:15.123Z,23.74
2022-08-19T07:59:41.627Z,23.74
2022-08-19T08:02:09.895Z,23.74
2022-08-19T08:04:55.098Z,23.74
2022-08-19T08:07:39.880Z,23.76
2022-08-19T08:10:21.256Z,23.77
2022-08-19T08:12:52.283Z,23.76
2022-08-19T08:15:39.971Z,23.78
2022-08-19T08:18:08.599Z,23.79
2022-08-19T08:20:36.045Z,23.81
2022-08-19T08:23:21.580Z,23.88
2022-08-19T08:25:49.366Z,23.94
2022-08-19T08:28:17.978Z,23.96
2022-08-19T08:30:48.451Z,23.95
2022-08-19T08:33:32.885Z,23.91
2022-08-19T08:36:09.543Z,23.86
2022-08-19T08:38:41.208Z,23.89
2022-08-19T08:41:38.172Z,23.91
2022-08-19T08:44:05.672Z,23.95
2022-08-19T08:46:40.929Z,23.95
2022-08-19T08:49:29.019Z,23.93
2022-08-19T08:52:03.370Z,23.96
2022-08-19T08:54:38.593Z,23.96
2022-08-19T08:57:12.023Z,23.94
2022-08-19T08:59:42.026Z,23.93
2022-08-19T09:02:09.667Z,23.93
2022-08-19T09:04:38.530Z,23.93
2022-08-19T09:07:18.668Z,23.94
2022-08-19T09:10:18.796Z,23.95
2022-08-19T09:13:09.346Z,23.91
2022-08-19T09:15:45.309Z,23.85
2022-08-19T09:18:19.142Z,23.84
2022-08-19T09:20:47.862Z,23.84
2022-08-19T09:23:15.256Z,23.82
2022-08-19T09:25:42.055Z,23.82
2022-08-19T09:28:22.013Z,23.78
2022-08-19T09:30:49.517Z,23.74
2022-08-19T09:33:16.531Z,23.69
2022-08-19T09:35:49.503Z,23.67
2022-08-19T09:38:16.707Z,23.64
2022-08-19T09:40:43.217Z,23.67
2022-08-19T09:43:13.412Z,23.71
2022-08-19T09:45:40.432Z,23.71
2022-08-19T09:48:07.121Z,23.69
2022-08-19T09:50:35.093Z,23.72
2022-08-19T09:53:01.538Z,23.73
2022-08-19T09:55:31.680Z,23.75
2022-08-19T09:58:00.844Z,23.79
2022-08-19T10:00:27.895Z,23.80
2022-08-19T10:02:54.360Z,23.85
2022-08-19T10:05:42.331Z,23.95
2022-08-19T10:08:13.713Z,24.03
2022-08-19T10:10:46.640Z,24.02
2022-08-19T10:13:16.404Z,24.07
2022-08-19T10:15:47.827Z,24.08
2022-08-19T10:18:18.607Z,24.09
2022-08-19T10:20:51.584Z,24.14
2022-08-19T10:23:21.380Z,24.21
2022-08-19T10:25:48.982Z,24.30
2022-08-19T10:28:15.580Z,24.42
2022-08-19T10:30:42.838Z,24.50
2022-08-19T10:33:10.975Z,24.57
2022-08-19T10:35:56.240Z,24.63
2022-08-19T10:38:31.553Z,24.68
2022-08-19T10:41:07.610Z,24.73
2022-08-19T10:43:36.955Z,24.76
2022-08-19T10:46:04.729Z,24.75
2022-08-19T10:48:36.314Z,24.72
2022-08-19T10:51:23.073Z,24.67
2022-08-19T10:53:50.716Z,24.64
2022-08-19T10:56:37.296Z,24.60
2022-08-19T10:59:04.441Z,24.56
2022-08-19T11:01:34.150Z,24.52
2022-08-19T11:04:05.094Z,24.48
2022-08-19T11:06:34.637Z,24.48
2022-08-19T11:09:01.240Z,24.47
2022-08-19T11:11:29.331Z,24.48
2022-08-19T11:13:56.463Z,24.46
2022-08-19T11:16:26.228Z,24.45
2022-08-19T11:18:55.790Z,24.46
2022-08-19T11:21:33.113Z,24.45
2022-08-19T11:24:02.466Z,24.46
2022-08-19T11:26:31.164Z,24.49
2022-08-19T11:28:58.546Z,24.53
2022-08-19T11:31:29.454Z,24.59
2022-08-19T11:34:02.425Z,24.63
2022-08-19T11:36:29.141Z,24.64
2022-08-19T11:38:55.634Z,24.70
2022-08-19T11:41:24.418Z,24.83
2022-08-19T11:43:53.710Z,25.00
2022-08-19T11:46:20.074Z,25.11
2022-08-19T11:48:47.004Z,25.11
2022-08-19T11:51:16.606Z,25.09
2022-08-19T11:53:43.311Z,25.03
2022-08-19T11:56:10.161Z,25.00
2022-08-19T11:58:37.596Z,25.03
2022-08-19T12:01:16.878Z,25.13
2022-08-19T12:03:44.971Z,25.36
2022-08-19T12:06:14.667Z,25.54
2022-08-19T12:08:43.254Z,25.54
2022-08-19T12:11:11.098Z,25.47
2022-08-19T12:13:39.684Z,25.42
2022-08-19T12:16:15.848Z,25.37
2022-08-19T12:18:47.306Z,25.36
2022-08-19T12:21:15.574Z,25.38
2022-08-19T12:23:44.063Z,25.41
2022-08-19T12:26:11.677Z,25.48
2022-08-19T12:28:38.916Z,25.59
2022-08-19T12:31:06.541Z,25.72
2022-08-19T12:33:33.213Z,25.81
2022-08-19T12:36:09.140Z,25.93
2022-08-19T12:38:36.495Z,26.09
2022-08-19T12:41:06.503Z,26.25
2022-08-19T12:43:35.918Z,26.62
2022-08-19T12:46:06.645Z,26.74
2022-08-19T12:48:37.915Z,26.70
2022-08-19T12:51:11.874Z,26.54
2022-08-19T12:53:39.291Z,26.42
2022-08-19T12:56:09.978Z,26.41
2022-08-19T12:58:39.538Z,26.43
2022-08-19T13:01:11.499Z,26.51
2022-08-19T13:03:40.600Z,26.56
2022-08-19T13:06:09.468Z,26.64
2022-08-19T13:08:42.723Z,26.74
2022-08-19T13:11:17.413Z,27.00
2022-08-19T13:13:47.044Z,27.75
2022-08-19T13:16:15.251Z,28.19
2022-08-19T13:18:43.246Z,28.21
2022-08-19T13:21:14.074Z,27.92
2022-08-19T13:23:41.791Z,27.53
2022-08-19T13:26:10.221Z,27.15
2022-08-19T13:28:55.085Z,26.87
2022-08-19T13:31:42.504Z,26.80
2022-08-19T13:34:09.616Z,26.81
2022-08-19T13:36:37.050Z,26.77
2022-08-19T13:39:05.300Z,26.70
2022-08-19T13:41:32.223Z,26.56
2022-08-19T13:43:58.666Z,26.51
2022-08-19T13:46:25.073Z,26.48
2022-08-19T13:48:51.516Z,26.48
2022-08-19T13:51:18.775Z,26.52
2022-08-19T13:53:48.046Z,26.51
2022-08-19T13:56:17.695Z,26.50
2022-08-19T13:58:44.433Z,26.47
2022-08-19T14:01:11.499Z,26.46
2022-08-19T14:03:38.938Z,26.44
2022-08-19T14:06:05.422Z,26.47
2022-08-19T14:08:33.132Z,26.46
2022-08-19T14:11:00.522Z,26.41
2022-08-19T14:13:34.807Z,26.37
2022-08-19T14:16:01.433Z,26.26
2022-08-19T14:18:28.650Z,26.22
2022-08-19T14:20:57.790Z,26.17
2022-08-19T14:23:25.609Z,26.10
2022-08-19T14:25:52.193Z,26.05
2022-08-19T14:28:18.747Z,26.01
2022-08-19T14:30:45.441Z,26.00
2022-08-19T14:33:12.547Z,25.96
2022-08-19T14:35:39.028Z,25.91
2022-08-19T14:38:06.919Z,25.86
2022-08-19T14:40:33.579Z,25.81
2022-08-19T14:43:04.748Z,25.79
2022-08-19T14:45:33.771Z,25.81
2022-08-19T14:48:01.188Z,25.81
2022-08-19T14:50:28.425Z,25.81
2022-08-19T14:53:09.052Z,25.78
2022-08-19T14:55:43.219Z,25.79
2022-08-19T14:58:09.855Z,25.79
2022-08-19T15:00:56.423Z,25.82
2022-08-19T15:03:22.880Z,25.85
2022-08-19T15:05:49.311Z,25.89
2022-08-19T15:08:15.853Z,25.97
2022-08-19T15:10:42.367Z,26.04
2022-08-19T15:13:09.036Z,26.10
2022-08-19T15:15:35.982Z,26.14
2022-08-19T15:18:03.529Z,26.19
2022-08-19T15:20:30.033Z,26.21
2022-08-19T15:22:56.513Z,26.24
2022-08-19T15:25:23.059Z,26.26
2022-08-19T15:27:49.485Z,26.24
2022-08-19T15:30:22.238Z,26.22
2022-08-19T15:32:49.316Z,26.21
2022-08-19T15:35:16.765Z,26.21
2022-08-19T15:37:43.726Z,26.22
2022-08-19T15:40:10.518Z,26.20
2022-08-19T15:42:38.014Z,26.13
2022-08-19T15:45:09.869Z,26.14
2022-08-19T15:47:36.980Z,26.11
2022-08-19T15:50:18.229Z,26.13
2022-08-19T15:52:54.178Z,26.22
2022-08-19T15:55:33.065Z,26.19
2022-08-19T15:58:30.985Z,26.24
2022-08-19T16:01:20.489Z,26.33
2022-08-19T16:04:13.867Z,26.48
2022-08-19T16:06:53.201Z,26.62
2022-08-19T16:09:27.487Z,26.70
2022-08-19T16:11:57.133Z,26.74
2022-08-19T16:14:28.727Z,26.76
2022-08-19T16:16:56.703Z,26.79
2022-08-19T16:19:24.475Z,26.80
2022-08-19T16:21:53.329Z,26.78
2022-08-19T16:24:23.570Z,26.72
2022-08-19T16:26:50.373Z,26.64
2022-08-19T16:29:33.360Z,26.54
2022-08-19T16:32:03.419Z,26.42
2022-08-19T16:34:30.705Z,26.28
2022-08-19T16:36:57.263Z,26.17
2022-08-19T16:39:24.217Z,26.08
2022-08-19T16:41:51.957Z,26.01
2022-08-19T16:44:19.315Z,25.94
2022-08-19T16:46:47.215Z,25.91
2022-08-19T16:49:54.437Z,25.84
2022-08-19T16:52:12.871Z,25.77
2022-08-19T16:54:43.774Z,25.69
2022-08-19T16:57:12.259Z,25.65
2022-08-19T16:59:48.170Z,25.59
2022-08-19T17:02:18.597Z,25.58
2022-08-19T17:04:57.344Z,25.54
2022-08-19T17:07:33.268Z,25.54
2022-08-19T17:10:01.980Z,25.48
2022-08-19T17:12:31.549Z,25.43
2022-08-19T17:14:59.882Z,25.37
2022-08-19T17:17:29.153Z,25.36
2022-08-19T17:19:55.906Z,25.33
2022-08-19T17:22:22.456Z,25.27
2022-08-19T17:24:49.389Z,25.25
2022-08-19T17:27:15.826Z,25.21
2022-08-19T17:29:46.778Z,25.18
2022-08-19T17:32:14.391Z,25.19
2022-08-19T17:34:40.927Z,25.16
2022-08-19T17:37:07.654Z,25.14
2022-08-19T17:39:37.227Z,25.12
2022-08-19T17:42:06.660Z,25.09
2022-08-19T17:44:36.428Z,25.05
2022-08-19T17:47:04.253Z,25.01
2022-08-19T17:49:33.428Z,24.98
2022-08-19T17:52:00.673Z,24.94
2022-08-19T17:54:30.609Z,24.91
2022-08-19T17:57:01.413Z,24.90
2022-08-19T17:59:29.961Z,24.84
2022-08-19T18:01:57.612Z,24.81
2022-08-19T18:04:25.462Z,24.78
2022-08-19T18:06:54.372Z,24.77
2022-08-19T18:09:26.067Z,24.75
2022-08-19T18:11:54.543Z,24.73
2022-08-19T18:14:32.274Z,24.70
2022-08-19T18:17:09.354Z,24.67
2022-08-19T18:19:41.512Z,24.64
2022-08-19T18:22:10.957Z,24.61
2022-08-19T18:24:39.687Z,24.58
2022-08-19T18:27:07.144Z,24.53
2022-08-19T18:29:34.096Z,24.50
2022-08-19T18:32:00.646Z,24.47
2022-08-19T18:34:27.080Z,24.44
2022-08-19T18:36:54.241Z,24.37
2022-08-19T18:39:39.648Z,24.32
2022-08-19T18:42:34.983Z,24.28
2022-08-19T18:45:24.777Z,24.25
2022-08-19T18:48:27.029Z,24.18
2022-08-19T18:50:56.917Z,24.13
2022-08-19T18:53:23.833Z,24.08
2022-08-19T18:55:53.974Z,24.05
2022-08-19T18:58:33.644Z,24.01
2022-08-19T19:01:03.524Z,23.98
2022-08-19T19:03:30.064Z,23.96
2022-08-19T19:05:56.610Z,23.91
2022-08-19T19:08:26.995Z,23.88
2022-08-19T19:10:54.551Z,23.84
2022-08-19T19:13:21.001Z,23.79
2022-08-19T19:15:47.523Z,23.75
2022-08-19T19:18:13.988Z,23.71
2022-08-19T19:20:40.869Z,23.67
2022-08-19T19:23:08.585Z,23.63
2022-08-19T19:25:49.879Z,23.59
2022-08-19T19:28:17.656Z,23.57
2022-08-19T19:30:44.170Z,23.53
2022-08-19T19:33:10.779Z,23.51
2022-08-19T19:35:37.236Z,23.46
2022-08-19T19:38:04.328Z,23.44
2022-08-19T19:40:30.984Z,23.41
2022-08-19T19:42:59.707Z,23.38
2022-08-19T19:45:26.957Z,23.35
2022-08-19T19:47:53.688Z,23.31
2022-08-19T19:50:20.269Z,23.29
2022-08-19T19:52:46.966Z,23.26
2022-08-19T19:55:18.647Z,23.22
2022-08-19T19:57:46.559Z,23.20
2022-08-19T20:00:16.261Z,23.17
2022-08-19T20:02:49.264Z,23.15
2022-08-19T20:05:19.127Z,23.12
2022-08-19T20:08:04.243Z,23.10
2022-08-19T20:10:32.250Z,23.07
2022-08-19T20:13:02.219Z,23.03
2022-08-19T20:15:29.334Z,23.01
2022-08-19T20:17:55.993Z,22.98
2022-08-19T20:20:23.630Z,22.97
2022-08-19T20:22:50.084Z,22.94
2022-08-19T20:25:18.739Z,22.90
2022-08-19T20:27:49.702Z,22.89
2022-08-19T20:30:21.038Z,22.87
2022-08-19T20:32:49.608Z,22.85
2022-08-19T20:35:18.678Z,22.82
2022-08-19T20:37:45.184Z,22.79
2022-08-19T20:40:16.333Z,22.77
2022-08-19T20:42:47.135Z,22.77
2022-08-19T20:45:32.153Z,22.74
2022-08-19T20:47:59.153Z,22.74
2022-08-19T20:50:26.094Z,22.70
2022-08-19T20:52:56.426Z,22.68
2022-08-19T20:55:22.941Z,22.67
2022-08-19T20:57:49.531Z,22.65
2022-08-19T21:00:16.188Z,22.62
2022-08-19T21:02:42.691Z,22.61
2022-08-19T21:05:09.231Z,22.59
2022-08-19T21:07:38.995Z,22.59
2022-08-19T21:10:06.923Z,22.57
2022-08-19T21:12:33.588Z,22.55
2022-08-19T21:15:00.199Z,22.56
2022-08-19T21:17:26.792Z,22.54
2022-08-19T21:19:53.437Z,22.54
2022-08-19T21:22:20.082Z,22.53
2022-08-19T21:24:46.533Z,22.52
2022-08-19T21:27:13.012Z,22.51
2022-08-19T21:29:40.466Z,22.50
2022-08-19T21:32:07.307Z,22.49
2022-08-19T21:34:33.732Z,22.48
2022-08-19T21:37:00.204Z,22.46
2022-08-19T21:39:27.573Z,22.45
2022-08-19T21:41:54.369Z,22.44
2022-08-19T21:44:20.839Z,22.42
2022-08-19T21:46:50.334Z,22.42
2022-08-19T21:49:17.088Z,22.41
2022-08-19T21:51:43.628Z,22.39
2022-08-19T21:54:14.207Z,22.38
2022-08-19T21:56:41.612Z,22.38
2022-08-19T21:59:08.685Z,22.37
2022-08-19T22:01:35.813Z,22.36
2022-08-19T22:04:02.208Z,22.34
2022-08-19T22:06:29.713Z,22.33
2022-08-19T22:08:56.104Z,22.33
2022-08-19T22:11:23.831Z,22.33
2022-08-19T22:13:53.732Z,22.30
2022-08-19T22:16:20.836Z,22.29
2022-08-19T22:18:48.688Z,22.27
2022-08-19T22:21:15.269Z,22.29
2022-08-19T22:23:47.446Z,22.30
2022-08-19T22:26:16.008Z,22.26
2022-08-19T22:28:43.056Z,22.21
2022-08-19T22:31:10.537Z,22.16
2022-08-19T22:33:38.430Z,22.14
2022-08-19T22:36:10.842Z,22.16
2022-08-19T22:38:38.182Z,22.18
2022-08-19T22:41:07.050Z,22.18
2022-08-19T22:43:34.290Z,22.20
2022-08-19T22:46:01.127Z,22.19
2022-08-19T22:48:30.177Z,22.20
2022-08-19T22:51:16.208Z,22.19
2022-08-19T22:53:44.962Z,22.20
2022-08-19T22:56:15.377Z,22.19
2022-08-19T22:58:42.356Z,22.16
2022-08-19T23:01:11.246Z,22.13
2022-08-19T23:03:51.473Z,22.11
2022-08-19T23:06:18.020Z,22.09
2022-08-19T23:08:44.535Z,22.10
2022-08-19T23:11:11.464Z,22.12
2022-08-19T23:13:39.317Z,22.12
2022-08-19T23:16:06.372Z,22.12
2022-08-19T23:18:34.093Z,22.13
2022-08-19T23:21:01.249Z,22.13
2022-08-19T23:23:28.185Z,22.13
2022-08-19T23:25:56.584Z,22.13
2022-08-19T23:28:42.916Z,22.17
2022-08-19T23:31:09.512Z,22.19
2022-08-19T23:33:50.805Z,22.21
2022-08-19T23:36:20.271Z,22.22
2022-08-19T23:38:49.098Z,22.24
2022-08-19T23:41:17.591Z,22.24
2022-08-19T23:43:44.441Z,22.24
2022-08-19T23:46:13.391Z,22.25
2022-08-19T23:48:40.776Z,22.27
2022-08-19T23:51:10.854Z,22.29
2022-08-19T23:53:41.422Z,22.31
2022-08-19T23:56:10.463Z,22.32
2022-08-19T23:58:38.310Z,22.32
